Terminal Aerodrome Forecast
Issued by NWS Twin Cities, MN

Home | Current Version | Previous Version | Text Only | Print | Product List | Glossary On
Versions: 1 2 3 4 5 6 7 8 9 10 11 12 13 14 15 16 17 18 19 20 21 22 23 24 25
000
FTUS43 KMPX 210500
TAFMSP
TAF
KMSP 210521Z 2106/2212 10010KT P6SM SCT035 BKN090
     FM210800 12006KT 6SM -SHRA BR VCTS SCT015 BKN035CB
      TEMPO 2108/2111 2SM SHRA BKN025
     FM211100 12006KT 4SM -SHRA BR VCTS BKN020 BKN040CB
      TEMPO 2111/2113 2SM SHRA BKN012
     FM211500 12009KT 6SM BR SCT015 BKN025 OVC100
     FM211800 17009KT P6SM BKN035 BKN110
     FM220000 03004KT P6SM BKN090=

USA.gov is the U.S. government's official web portal to all federal, state and local government web resources and services.